createdAt,value
2023-02-12T00:01:24.708Z,38.35
2023-02-12T00:03:51.866Z,37.11
2023-02-12T00:06:18.945Z,38.59
2023-02-12T00:08:50.854Z,38.44
2023-02-12T00:11:19.411Z,37.60
2023-02-12T00:13:46.678Z,38.83
2023-02-12T00:16:16.049Z,38.61
2023-02-12T00:18:42.880Z,39.89
2023-02-12T00:21:09.664Z,38.39
2023-02-12T00:23:36.934Z,39.82
2023-02-12T00:26:10.615Z,40.11
2023-02-12T00:28:37.780Z,38.44
2023-02-12T00:31:16.020Z,39.42
2023-02-12T00:33:48.279Z,39.58
2023-02-12T00:36:16.878Z,40.37
2023-02-12T00:38:44.591Z,40.37
2023-02-12T00:41:11.422Z,39.95
2023-02-12T00:43:38.556Z,40.19
2023-02-12T00:46:10.975Z,39.90
2023-02-12T00:48:38.052Z,40.32
2023-02-12T00:51:05.255Z,40.69
2023-02-12T00:53:32.621Z,38.91
2023-02-12T00:55:59.810Z,38.81
2023-02-12T00:58:26.521Z,38.28
2023-02-12T01:00:53.525Z,37.39
2023-02-12T01:03:20.885Z,37.99
2023-02-12T01:05:48.817Z,37.99
2023-02-12T01:08:16.765Z,37.54
2023-02-12T01:10:43.950Z,38.80
2023-02-12T01:13:17.040Z,38.88
2023-02-12T01:15:44.094Z,38.85
2023-02-12T01:18:11.193Z,38.90
2023-02-12T01:20:40.113Z,39.42
2023-02-12T01:23:07.245Z,38.56
2023-02-12T01:25:34.361Z,38.18
2023-02-12T01:28:01.502Z,38.98
2023-02-12T01:30:34.505Z,39.06
2023-02-12T01:33:01.573Z,38.46
2023-02-12T01:35:28.533Z,37.67
2023-02-12T01:37:58.115Z,39.80
2023-02-12T01:40:30.613Z,39.79
2023-02-12T01:43:01.059Z,40.17
2023-02-12T01:45:36.895Z,39.09
2023-02-12T01:48:04.037Z,39.60
2023-02-12T01:50:31.335Z,39.22
2023-02-12T01:53:01.019Z,39.53
2023-02-12T01:55:31.594Z,39.90
2023-02-12T01:57:58.535Z,40.29
2023-02-12T02:00:30.894Z,40.83
2023-02-12T02:02:58.770Z,40.25
2023-02-12T02:05:34.150Z,40.81
2023-02-12T02:08:10.393Z,41.33
2023-02-12T02:10:37.499Z,41.75
2023-02-12T02:13:04.579Z,42.54
2023-02-12T02:15:36.439Z,42.40
2023-02-12T02:18:07.854Z,42.31
2023-02-12T02:20:43.978Z,42.67
2023-02-12T02:23:37.851Z,43.16
2023-02-12T02:26:37.721Z,45.94
2023-02-12T02:29:30.117Z,43.27
2023-02-12T02:32:20.877Z,42.75
2023-02-12T02:34:58.616Z,41.17
2023-02-12T02:37:49.251Z,41.83
2023-02-12T02:40:27.359Z,41.45
2023-02-12T02:43:15.946Z,41.83
2023-02-12T02:45:50.014Z,39.34
2023-02-12T02:48:24.654Z,40.80
2023-02-12T02:50:55.785Z,40.31
2023-02-12T02:53:45.990Z,41.14
2023-02-12T02:56:20.425Z,41.51
2023-02-12T02:58:59.385Z,42.03
2023-02-12T03:01:38.391Z,41.24
2023-02-12T03:04:10.185Z,41.33
2023-02-12T03:07:10.514Z,41.37
2023-02-12T03:09:40.739Z,41.59
2023-02-12T03:12:14.400Z,41.27
2023-02-12T03:14:44.896Z,41.66
2023-02-12T03:17:26.487Z,41.34
2023-02-12T03:19:59.007Z,42.96
2023-02-12T03:22:29.072Z,42.45
2023-02-12T03:25:18.594Z,43.79
2023-02-12T03:28:09.892Z,43.09
2023-02-12T03:31:11.212Z,44.42
2023-02-12T03:34:09.754Z,45.01
2023-02-12T03:36:55.634Z,48.79
2023-02-12T03:39:37.158Z,46.06
2023-02-12T03:42:42.294Z,44.76
2023-02-12T03:45:55.849Z,43.62
2023-02-12T03:48:23.813Z,44.17
2023-02-12T03:51:10.185Z,44.62
2023-02-12T03:53:42.871Z,45.74
2023-02-12T03:56:47.511Z,45.58
2023-02-12T03:59:14.997Z,45.50
2023-02-12T04:01:46.862Z,44.26
2023-02-12T04:04:14.634Z,44.69
2023-02-12T04:06:41.585Z,44.52
2023-02-12T04:09:09.666Z,45.42
2023-02-12T04:12:15.837Z,44.96
2023-02-12T04:15:33.720Z,45.02
2023-02-12T04:18:10.362Z,44.65
2023-02-12T04:21:31.545Z,45.61
2023-02-12T04:24:30.122Z,46.15
2023-02-12T04:27:31.008Z,46.87
2023-02-12T04:30:15.799Z,46.67
2023-02-12T04:32:48.778Z,47.34
2023-02-12T04:35:48.818Z,46.92
2023-02-12T04:38:40.548Z,46.58
2023-02-12T04:41:07.771Z,48.50
2023-02-12T04:43:37.538Z,46.90
2023-02-12T04:46:05.918Z,47.11
2023-02-12T04:48:33.033Z,47.75
2023-02-12T04:51:00.070Z,47.68
2023-02-12T04:53:27.555Z,47.35
2023-02-12T04:55:54.893Z,47.29
2023-02-12T04:58:22.197Z,48.22
2023-02-12T05:00:53.976Z,47.98
2023-02-12T05:03:23.550Z,48.98
2023-02-12T05:05:53.390Z,48.40
2023-02-12T05:08:20.494Z,48.92
2023-02-12T05:10:47.246Z,48.87
2023-02-12T05:13:16.723Z,49.69
2023-02-12T05:15:43.585Z,49.38
2023-02-12T05:18:11.158Z,48.81
2023-02-12T05:20:39.076Z,48.02
2023-02-12T05:23:06.757Z,48.99
2023-02-12T05:25:33.810Z,49.58
2023-02-12T05:28:00.605Z,50.13
2023-02-12T05:30:28.959Z,51.69
2023-02-12T05:32:56.250Z,51.37
2023-02-12T05:35:25.763Z,51.40
2023-02-12T05:37:52.874Z,51.64
2023-02-12T05:40:20.118Z,51.91
2023-02-12T05:43:11.383Z,52.53
2023-02-12T05:45:38.499Z,55.42
2023-02-12T05:48:10.543Z,54.02
2023-02-12T05:50:38.502Z,54.27
2023-02-12T05:53:05.554Z,55.40
2023-02-12T05:55:32.587Z,55.02
2023-02-12T05:58:02.160Z,55.14
2023-02-12T06:00:32.051Z,54.84
2023-02-12T06:02:59.230Z,55.81
2023-02-12T06:05:26.407Z,55.15
2023-02-12T06:07:53.770Z,54.58
2023-02-12T06:10:21.246Z,53.23
2023-02-12T06:12:53.670Z,54.53
2023-02-12T06:15:25.595Z,54.03
2023-02-12T06:17:52.557Z,53.34
2023-02-12T06:20:19.464Z,53.41
2023-02-12T06:22:46.537Z,55.10
2023-02-12T06:25:13.658Z,55.36
2023-02-12T06:27:40.686Z,55.21
2023-02-12T06:30:09.442Z,55.10
2023-02-12T06:32:36.841Z,55.05
2023-02-12T06:35:04.112Z,54.90
2023-02-12T06:37:32.407Z,55.84
2023-02-12T06:39:59.462Z,55.61
2023-02-12T06:42:29.211Z,56.58
2023-02-12T06:44:55.980Z,55.82
2023-02-12T06:47:23.112Z,56.18
2023-02-12T06:49:50.123Z,56.55
2023-02-12T06:52:17.175Z,59.42
2023-02-12T06:54:44.260Z,56.96
2023-02-12T06:57:15.916Z,55.82
2023-02-12T06:59:44.135Z,54.16
2023-02-12T07:02:11.883Z,55.13
2023-02-12T07:04:40.690Z,54.63
2023-02-12T07:07:07.697Z,54.77
2023-02-12T07:09:34.808Z,52.66
2023-02-12T07:12:01.935Z,52.36
2023-02-12T07:14:28.631Z,51.77
2023-02-12T07:16:57.292Z,52.51
2023-02-12T07:19:24.814Z,52.95
2023-02-12T07:21:54.303Z,51.92
2023-02-12T07:24:22.047Z,53.01
2023-02-12T07:26:52.446Z,52.73
2023-02-12T07:29:19.134Z,53.29
2023-02-12T07:31:47.267Z,52.80
2023-02-12T07:34:14.084Z,53.96
2023-02-12T07:36:40.821Z,55.67
2023-02-12T07:39:07.917Z,53.51
2023-02-12T07:41:35.559Z,54.78
2023-02-12T07:44:07.059Z,55.77
2023-02-12T07:46:35.811Z,55.07
2023-02-12T07:49:08.167Z,54.62
2023-02-12T07:51:34.916Z,54.93
2023-02-12T07:54:02.607Z,54.92
2023-02-12T07:56:30.861Z,51.57
2023-02-12T07:58:58.657Z,53.84
2023-02-12T08:01:28.540Z,53.95
2023-02-12T08:04:03.407Z,53.64
2023-02-12T08:06:31.483Z,51.96
2023-02-12T08:08:59.945Z,50.88
2023-02-12T08:11:29.693Z,51.99
2023-02-12T08:13:57.877Z,51.06
2023-02-12T08:16:27.060Z,51.73
2023-02-12T08:19:02.325Z,51.52
2023-02-12T08:21:34.511Z,50.73
2023-02-12T08:24:01.471Z,51.30
2023-02-12T08:26:36.755Z,50.53
2023-02-12T08:29:33.838Z,49.74
2023-02-12T08:32:01.852Z,49.11
2023-02-12T08:34:30.882Z,47.43
2023-02-12T08:36:57.730Z,48.31
2023-02-12T08:39:25.296Z,49.20
2023-02-12T08:41:53.927Z,48.60
2023-02-12T08:44:20.736Z,48.80
2023-02-12T08:46:48.849Z,48.44
2023-02-12T08:49:22.986Z,49.24
2023-02-12T08:51:54.002Z,49.16
2023-02-12T08:54:22.403Z,49.87
2023-02-12T08:56:49.472Z,48.43
2023-02-12T08:59:22.262Z,49.83
2023-02-12T09:01:58.928Z,49.47
2023-02-12T09:04:27.052Z,48.76
2023-02-12T09:06:53.785Z,46.90
2023-02-12T09:09:21.507Z,46.49
2023-02-12T09:11:48.323Z,46.81
2023-02-12T09:14:17.579Z,46.61
2023-02-12T09:16:45.465Z,47.33
2023-02-12T09:19:14.344Z,47.38
2023-02-12T09:21:41.745Z,46.94
2023-02-12T09:24:08.773Z,46.87
2023-02-12T09:26:35.886Z,48.30
2023-02-12T09:29:03.343Z,48.38
2023-02-12T09:31:33.387Z,48.11
2023-02-12T09:34:02.404Z,47.69
2023-02-12T09:36:32.056Z,47.75
2023-02-12T09:38:59.618Z,48.15
2023-02-12T09:41:44.826Z,47.17
2023-02-12T09:44:33.566Z,47.67
2023-02-12T09:47:03.233Z,47.41
2023-02-12T09:50:01.890Z,47.52
2023-02-12T09:52:28.790Z,46.93
2023-02-12T09:54:55.936Z,47.57
2023-02-12T09:57:25.492Z,47.34
2023-02-12T09:59:55.634Z,48.30
2023-02-12T10:02:23.441Z,48.24
2023-02-12T10:05:01.088Z,47.82
2023-02-12T10:07:43.422Z,48.14
2023-02-12T10:10:27.833Z,48.52
2023-02-12T10:13:00.139Z,48.93
2023-02-12T10:15:37.727Z,47.58
2023-02-12T10:18:34.890Z,48.86
2023-02-12T10:21:33.483Z,49.66
2023-02-12T10:24:12.148Z,49.58
2023-02-12T10:26:43.646Z,47.93
2023-02-12T10:29:25.003Z,48.62
2023-02-12T10:32:00.664Z,49.65
2023-02-12T10:34:32.463Z,48.96
2023-02-12T10:37:34.632Z,49.92
2023-02-12T10:40:29.250Z,48.26
2023-02-12T10:42:56.376Z,49.26
2023-02-12T10:45:32.322Z,49.88
2023-02-12T10:48:20.849Z,49.17
2023-02-12T10:50:50.560Z,49.77
2023-02-12T10:53:22.794Z,48.84
2023-02-12T10:56:12.161Z,48.59
2023-02-12T10:58:57.936Z,49.47
2023-02-12T11:01:33.563Z,49.13
2023-02-12T11:04:01.417Z,48.17
2023-02-12T11:06:30.117Z,49.10
2023-02-12T11:08:58.372Z,48.95
2023-02-12T11:11:27.691Z,48.82
2023-02-12T11:14:04.836Z,49.66
2023-02-12T11:16:36.806Z,50.67
2023-02-12T11:19:05.586Z,51.37
2023-02-12T11:21:33.071Z,49.41
2023-02-12T11:24:29.468Z,49.34
2023-02-12T11:27:24.959Z,51.50
2023-02-12T11:30:17.983Z,51.30
2023-02-12T11:32:45.226Z,49.28
2023-02-12T11:35:16.771Z,49.50
2023-02-12T11:37:44.518Z,49.05
2023-02-12T11:40:17.018Z,50.52
2023-02-12T11:42:46.141Z,50.57
2023-02-12T11:45:17.464Z,49.39
2023-02-12T11:47:44.515Z,48.85
2023-02-12T11:50:26.105Z,49.57
2023-02-12T11:52:54.482Z,49.34
2023-02-12T11:55:23.744Z,49.44
2023-02-12T11:58:05.773Z,49.84
2023-02-12T12:00:37.840Z,50.09
2023-02-12T12:03:45.625Z,49.94
2023-02-12T12:06:29.837Z,50.40
2023-02-12T12:09:23.527Z,50.89
2023-02-12T12:12:29.122Z,52.35
2023-02-12T12:15:10.642Z,51.04
2023-02-12T12:17:41.333Z,51.61
2023-02-12T12:20:13.725Z,51.15
2023-02-12T12:23:03.414Z,50.03
2023-02-12T12:25:46.380Z,50.60
2023-02-12T12:28:50.792Z,49.43
2023-02-12T12:31:39.363Z,50.49
2023-02-12T12:34:30.234Z,49.57
2023-02-12T12:37:06.130Z,50.14
2023-02-12T12:39:40.708Z,49.77
2023-02-12T12:42:30.486Z,49.49
2023-02-12T12:45:20.729Z,50.09
2023-02-12T12:48:26.195Z,49.51
2023-02-12T12:51:20.854Z,49.82
2023-02-12T12:53:51.925Z,49.90
2023-02-12T12:56:50.445Z,49.80
2023-02-12T12:59:26.294Z,50.57
2023-02-12T13:01:59.852Z,49.50
2023-02-12T13:04:52.638Z,51.29
2023-02-12T13:07:40.629Z,49.77
2023-02-12T13:10:26.468Z,49.40
2023-02-12T13:13:05.446Z,48.61
2023-02-12T13:16:02.558Z,49.50
2023-02-12T13:18:51.156Z,49.32
2023-02-12T13:21:45.706Z,49.66
2023-02-12T13:24:29.337Z,49.85
2023-02-12T13:26:58.239Z,49.98
2023-02-12T13:29:28.044Z,50.31
2023-02-12T13:32:00.628Z,50.18
2023-02-12T13:34:27.529Z,48.72
2023-02-12T13:36:54.269Z,49.77
2023-02-12T13:39:38.090Z,49.33
2023-02-12T13:42:07.666Z,48.76
2023-02-12T13:44:37.002Z,48.74
2023-02-12T13:47:14.154Z,48.21
2023-02-12T13:50:13.056Z,47.99
2023-02-12T13:53:07.993Z,48.76
2023-02-12T13:56:03.974Z,48.93
2023-02-12T13:58:38.145Z,48.69
2023-02-12T14:01:04.990Z,48.89
2023-02-12T14:03:31.775Z,48.72
2023-02-12T14:06:16.863Z,48.34
2023-02-12T14:09:09.027Z,48.58
2023-02-12T14:11:51.805Z,48.26
2023-02-12T14:14:46.833Z,48.41
2023-02-12T14:18:15.151Z,48.91
2023-02-12T14:20:42.300Z,48.64
2023-02-12T14:23:28.512Z,48.26
2023-02-12T14:26:16.854Z,48.04
2023-02-12T14:29:06.844Z,48.98
2023-02-12T14:31:37.844Z,48.21
2023-02-12T14:34:07.784Z,48.82
2023-02-12T14:36:34.440Z,49.21
2023-02-12T14:39:19.959Z,47.27
2023-02-12T14:41:53.650Z,47.24
2023-02-12T14:44:23.182Z,48.48
2023-02-12T14:46:54.677Z,48.88
2023-02-12T14:49:52.098Z,48.49
2023-02-12T14:52:20.413Z,47.94
2023-02-12T14:54:51.020Z,47.54
2023-02-12T14:57:37.836Z,48.06
2023-02-12T15:00:16.661Z,48.69
2023-02-12T15:02:51.936Z,48.27
2023-02-12T15:05:22.485Z,48.82
2023-02-12T15:07:55.414Z,48.71
2023-02-12T15:10:24.186Z,48.96
2023-02-12T15:12:54.854Z,49.29
2023-02-12T15:15:31.387Z,48.81
2023-02-12T15:18:11.932Z,47.41
2023-02-12T15:20:48.920Z,47.82
2023-02-12T15:23:33.272Z,47.80
2023-02-12T15:26:01.785Z,48.49
2023-02-12T15:28:30.906Z,48.38
2023-02-12T15:30:58.123Z,48.29
2023-02-12T15:33:27.941Z,47.99
2023-02-12T15:35:54.960Z,47.77
2023-02-12T15:38:33.304Z,48.29
2023-02-12T15:41:01.120Z,47.50
2023-02-12T15:43:30.522Z,49.15
2023-02-12T15:45:57.552Z,47.92
2023-02-12T15:48:35.547Z,48.02
2023-02-12T15:51:33.489Z,48.67
2023-02-12T15:54:00.380Z,47.88
2023-02-12T15:56:29.911Z,49.30
2023-02-12T15:59:17.101Z,48.88
2023-02-12T16:02:02.870Z,48.35
2023-02-12T16:04:31.482Z,48.78
2023-02-12T16:06:59.145Z,49.07
2023-02-12T16:09:37.847Z,48.56
2023-02-12T16:12:07.592Z,50.28
2023-02-12T16:14:44.836Z,49.18
2023-02-12T16:17:37.727Z,49.57
2023-02-12T16:20:15.822Z,50.64
2023-02-12T16:22:44.696Z,50.29
2023-02-12T16:25:38.863Z,49.83
2023-02-12T16:28:16.998Z,50.12
2023-02-12T16:30:44.203Z,51.46
2023-02-12T16:36:32.610Z,50.36
2023-02-12T16:39:06.216Z,50.72
2023-02-12T16:41:54.816Z,51.69
2023-02-12T16:44:26.687Z,51.81
2023-02-12T16:46:55.468Z,51.45
2023-02-12T16:49:23.564Z,51.00
2023-02-12T16:51:50.401Z,52.10
2023-02-12T16:54:46.395Z,53.13
2023-02-12T16:57:13.544Z,53.54
2023-02-12T16:59:42.434Z,52.66
2023-02-12T17:02:11.860Z,52.90
2023-02-12T17:04:38.581Z,53.65
2023-02-12T17:07:16.846Z,52.79
2023-02-12T17:09:43.536Z,53.67
2023-02-12T17:12:10.550Z,54.28
2023-02-12T17:14:37.580Z,54.70
2023-02-12T17:17:04.620Z,52.32
2023-02-12T17:19:33.013Z,53.26
2023-02-12T17:21:59.705Z,54.52
2023-02-12T17:24:33.524Z,54.57
2023-02-12T17:27:01.509Z,54.55
2023-02-12T17:29:29.214Z,55.43
2023-02-12T17:31:56.157Z,54.21
2023-02-12T17:34:23.507Z,55.91
2023-02-12T17:36:54.735Z,55.89
2023-02-12T17:39:22.031Z,54.42
2023-02-12T17:41:49.695Z,54.37
2023-02-12T17:44:17.397Z,54.28
2023-02-12T17:46:44.122Z,52.21
2023-02-12T17:49:13.621Z,52.17
2023-02-12T17:51:48.050Z,50.26
2023-02-12T17:54:15.219Z,46.75
2023-02-12T17:56:41.938Z,46.61
2023-02-12T17:59:13.667Z,46.11
2023-02-12T18:01:40.748Z,45.18
2023-02-12T18:04:07.780Z,46.65
2023-02-12T18:06:34.878Z,45.71
2023-02-12T18:09:03.093Z,44.21
2023-02-12T18:11:29.914Z,43.58
2023-02-12T18:13:57.882Z,44.31
2023-02-12T18:16:26.217Z,46.07
2023-02-12T18:18:53.437Z,46.50
2023-02-12T18:21:20.848Z,46.08
2023-02-12T18:23:48.160Z,46.38
2023-02-12T18:26:16.283Z,45.63
2023-02-12T18:28:45.122Z,46.18
2023-02-12T18:31:11.964Z,45.44
2023-02-12T18:33:39.807Z,44.01
2023-02-12T18:36:11.391Z,41.50
2023-02-12T18:38:39.391Z,42.49
2023-02-12T18:41:21.927Z,51.00
2023-02-12T18:43:51.881Z,63.37
2023-02-12T18:46:20.486Z,59.43
2023-02-12T18:48:48.477Z,59.80
2023-02-12T18:51:19.930Z,57.19
2023-02-12T18:53:47.054Z,51.47
2023-02-12T18:56:16.826Z,47.54
2023-02-12T18:58:43.534Z,45.19
2023-02-12T19:01:18.384Z,47.64
2023-02-12T19:03:45.800Z,47.61
2023-02-12T19:06:12.573Z,48.60
2023-02-12T19:08:39.738Z,48.33
2023-02-12T19:11:10.523Z,48.30
2023-02-12T19:13:38.916Z,47.87
2023-02-12T19:16:14.566Z,47.16
2023-02-12T19:18:44.535Z,48.11
2023-02-12T19:21:16.886Z,47.89
2023-02-12T19:23:44.106Z,46.40
2023-02-12T19:26:12.958Z,47.09
2023-02-12T19:28:40.361Z,48.69
2023-02-12T19:31:22.411Z,49.55
2023-02-12T19:33:50.094Z,49.23
2023-02-12T19:36:18.528Z,50.16
2023-02-12T19:38:46.366Z,49.21
2023-02-12T19:41:15.922Z,50.72
2023-02-12T19:43:42.736Z,50.09
2023-02-12T19:46:14.598Z,51.31
2023-02-12T19:48:41.329Z,49.72
2023-02-12T19:51:17.005Z,49.45
2023-02-12T19:53:44.307Z,50.36
2023-02-12T19:56:11.388Z,50.44
2023-02-12T19:58:38.484Z,50.14
2023-02-12T20:01:09.703Z,48.09
2023-02-12T20:03:38.161Z,48.66
2023-02-12T20:06:14.520Z,49.25
2023-02-12T20:08:41.595Z,47.96
2023-02-12T20:11:14.424Z,48.06
2023-02-12T20:13:42.479Z,48.19
2023-02-12T20:16:13.959Z,48.21
2023-02-12T20:18:40.649Z,47.42
2023-02-12T20:21:11.357Z,46.90
2023-02-12T20:23:49.973Z,50.33
2023-02-12T20:26:20.121Z,51.96
2023-02-12T20:28:47.592Z,50.04
2023-02-12T20:31:16.341Z,49.93
2023-02-12T20:33:54.415Z,51.68
2023-02-12T20:36:28.401Z,49.53
2023-02-12T20:39:00.604Z,48.31
2023-02-12T20:41:33.922Z,48.14
2023-02-12T20:44:04.150Z,48.26
2023-02-12T20:46:30.883Z,47.71
2023-02-12T20:48:57.606Z,47.46
2023-02-12T20:51:26.260Z,47.38
2023-02-12T20:53:53.314Z,48.74
2023-02-12T20:56:22.034Z,49.43
2023-02-12T20:58:48.854Z,49.57
2023-02-12T21:01:17.735Z,52.00
2023-02-12T21:03:45.078Z,48.71
2023-02-12T21:06:12.254Z,49.98
2023-02-12T21:08:40.030Z,49.56
2023-02-12T21:11:12.169Z,48.18
2023-02-12T21:13:39.427Z,49.46
2023-02-12T21:16:08.325Z,47.78
2023-02-12T21:18:35.676Z,48.52
2023-02-12T21:21:05.279Z,48.16
2023-02-12T21:23:33.090Z,48.26
2023-02-12T21:26:13.107Z,48.70
2023-02-12T21:28:41.107Z,47.13
2023-02-12T21:31:15.754Z,47.61
2023-02-12T21:33:43.120Z,47.42
2023-02-12T21:36:15.126Z,46.81
2023-02-12T21:38:44.479Z,46.94
2023-02-12T21:41:40.920Z,47.79
2023-02-12T21:44:11.445Z,49.10
2023-02-12T21:46:38.200Z,47.83
2023-02-12T21:49:07.327Z,46.42
2023-02-12T21:51:36.590Z,46.54
2023-02-12T21:54:08.025Z,46.56
2023-02-12T21:56:40.907Z,44.98
2023-02-12T21:59:07.821Z,44.84
2023-02-12T22:01:35.590Z,43.69
2023-02-12T22:04:03.876Z,45.80
2023-02-12T22:06:30.707Z,44.48
2023-02-12T22:09:04.602Z,45.79
2023-02-12T22:11:31.686Z,44.95
2023-02-12T22:13:58.764Z,45.37
2023-02-12T22:16:28.445Z,44.95
2023-02-12T22:18:56.836Z,45.00
2023-02-12T22:21:24.140Z,46.76
2023-02-12T22:23:52.926Z,46.77
2023-02-12T22:26:24.232Z,48.50
2023-02-12T22:28:56.043Z,48.21
2023-02-12T22:31:28.206Z,45.94
2023-02-12T22:33:57.855Z,46.40
2023-02-12T22:36:24.695Z,46.19
2023-02-12T22:38:52.595Z,47.61
2023-02-12T22:41:19.471Z,47.00
2023-02-12T22:43:47.562Z,48.19
2023-02-12T22:46:14.494Z,49.15
2023-02-12T22:48:42.273Z,48.26
2023-02-12T22:51:31.307Z,49.05
2023-02-12T22:53:58.341Z,49.54
2023-02-12T22:56:25.505Z,49.88
2023-02-12T22:58:59.691Z,49.18
2023-02-12T23:03:53.796Z,48.23
2023-02-12T23:06:22.454Z,48.99
2023-02-12T23:08:56.626Z,49.18
2023-02-12T23:11:26.660Z,49.94
2023-02-12T23:13:53.910Z,48.75
2023-02-12T23:16:21.062Z,51.03
2023-02-12T23:18:48.142Z,49.92
2023-02-12T23:21:15.123Z,48.79
2023-02-12T23:23:41.898Z,49.65
2023-02-12T23:26:14.156Z,49.24
2023-02-12T23:28:41.956Z,49.62
2023-02-12T23:31:09.145Z,49.96
2023-02-12T23:33:38.775Z,51.02
2023-02-12T23:36:06.728Z,50.77
2023-02-12T23:38:33.474Z,50.32
2023-02-12T23:41:00.492Z,51.25
2023-02-12T23:43:28.573Z,51.26
2023-02-12T23:45:55.613Z,51.66
2023-02-12T23:48:22.402Z,50.55
2023-02-12T23:50:50.028Z,50.34
2023-02-12T23:53:16.989Z,52.20
2023-02-12T23:55:43.755Z,51.10
2023-02-12T23:58:10.746Z,51.17
